Time;durP1;ratioP1;P1;durP2;ratioP2;P2;SDS_P1;SDS_P2;PMS_P1;PMS_P2;Temp;Humidity;BMP_temperature;BMP_pressure;BME280_temperature;BME280_humidity;BME280_pressure;Samples;Min_cycle;Max_cycle;Signal;HPM_P1;HPM_P2
2022/10/07 14:10:50;;;;;;;0.40;0.40;;;;;;;;;;4959281;28;20601;-80
2022/10/07 14:17:53;;;;;;;0.30;0.30;;;;;;;;;;4962507;28;20610;-77
2022/10/07 14:20:44;;;;;;;0.40;0.40;;;;;;;;;;4865629;28;20309;-77
2022/10/07 14:23:31;;;;;;;0.30;0.30;;;;;;;;;;4968802;28;23012;-80
2022/10/07 14:25:59;;;;;;;0.30;0.30;;;;;;;;;;5000463;28;20219;-80
2022/10/07 14:28:26;;;;;;;0.30;0.30;;;;;;;;;;4991470;28;20215;-80
2022/10/07 14:37:10;;;;;;;0.30;0.30;;;;;;;;;;4986191;28;20338;-80
2022/10/07 14:39:35;;;;;;;0.40;0.40;;;;;;;;;;4997305;28;20680;-81
2022/10/07 14:42:02;;;;;;;0.30;0.30;;;;;;;;;;5000153;28;20199;-80
2022/10/07 14:44:28;;;;;;;0.40;0.40;;;;;;;;;;4979158;28;20230;-80
2022/10/07 14:47:14;;;;;;;0.40;0.40;;;;;;;;;;5003190;28;20203;-81
2022/10/07 14:49:41;;;;;;;0.30;0.30;;;;;;;;;;4994800;28;20186;-81
2022/10/07 14:52:31;;;;;;;0.30;0.30;;;;;;;;;;4990382;28;20513;-80
2022/10/07 14:54:59;;;;;;;0.40;0.40;;;;;;;;;;4994240;28;20192;-80
2022/10/07 14:57:24;;;;;;;0.30;0.30;;;;;;;;;;4998024;28;20265;-81
2022/10/07 14:59:50;;;;;;;0.40;0.40;;;;;;;;;;4999518;28;20191;-81
2022/10/07 15:02:16;;;;;;;0.30;0.30;;;;;;;;;;4994395;28;20176;-80
2022/10/07 15:04:43;;;;;;;0.35;0.35;;;;;;;;;;4999206;28;20196;-80
2022/10/07 15:07:12;;;;;;;0.30;0.30;;;;;;;;;;4995956;28;20274;-80
2022/10/07 15:09:37;;;;;;;0.30;0.30;;;;;;;;;;4988927;28;20195;-80
2022/10/07 15:12:04;;;;;;;0.30;0.30;;;;;;;;;;4931421;28;20223;-83
2022/10/07 15:14:30;;;;;;;0.30;0.30;;;;;;;;;;4942249;28;20303;-80
2022/10/07 15:16:56;;;;;;;0.30;0.30;;;;;;;;;;4992326;28;20323;-79
2022/10/07 15:19:21;;;;;;;0.40;0.40;;;;;;;;;;5012149;28;20180;-79
2022/10/07 15:21:47;;;;;;;0.30;0.30;;;;;;;;;;5015641;28;20221;-80
2022/10/07 15:24:12;;;;;;;0.30;0.30;;;;;;;;;;5016173;28;20180;-81
2022/10/07 15:26:38;;;;;;;0.30;0.30;;;;;;;;;;5018457;28;20204;-81
2022/10/07 15:29:06;;;;;;;0.30;0.30;;;;;;;;;;5005502;28;20755;-81
2022/10/07 15:31:32;;;;;;;0.30;0.30;;;;;;;;;;5001980;28;20222;-80
2022/10/07 15:33:57;;;;;;;0.40;0.40;;;;;;;;;;5000114;28;20226;-80
2022/10/07 15:36:28;;;;;;;0.30;0.30;;;;;;;;;;5003569;28;20294;-80
2022/10/07 15:38:54;;;;;;;0.30;0.30;;;;;;;;;;5005244;28;20258;-80
2022/10/07 15:41:39;;;;;;;0.30;0.30;;;;;;;;;;5003838;28;20242;-80
2022/10/07 15:44:11;;;;;;;0.40;0.40;;;;;;;;;;5003515;28;20183;-79
2022/10/07 15:46:37;;;;;;;0.30;0.30;;;;;;;;;;4999892;28;20221;-80
2022/10/07 15:49:04;;;;;;;0.40;0.40;;;;;;;;;;5003351;28;20667;-80
2022/10/07 15:51:30;;;;;;;0.30;0.30;;;;;;;;;;5003658;28;20298;-79
2022/10/07 15:53:56;;;;;;;0.40;0.40;;;;;;;;;;5001264;28;20182;-79
2022/10/07 15:56:22;;;;;;;0.35;0.35;;;;;;;;;;5002474;28;20199;-80
2022/10/07 15:58:47;;;;;;;0.30;0.30;;;;;;;;;;5000512;28;20183;-80
2022/10/07 16:01:14;;;;;;;0.30;0.30;;;;;;;;;;5000206;28;20203;-79
2022/10/07 16:03:46;;;;;;;0.40;0.40;;;;;;;;;;5003866;28;20180;-80
2022/10/07 16:06:20;;;;;;;0.30;0.30;;;;;;;;;;5000310;28;20246;-79
2022/10/07 16:08:46;;;;;;;0.30;0.30;;;;;;;;;;5005580;28;20652;-80
2022/10/07 16:11:12;;;;;;;0.30;0.30;;;;;;;;;;5000364;28;20433;-80
2022/10/07 16:13:39;;;;;;;0.40;0.40;;;;;;;;;;5005538;28;20179;-79
2022/10/07 16:16:08;;;;;;;0.30;0.30;;;;;;;;;;4996758;28;20240;-79
2022/10/07 16:18:35;;;;;;;0.30;0.30;;;;;;;;;;5006873;28;20610;-80
2022/10/07 16:21:05;;;;;;;0.30;0.30;;;;;;;;;;5003145;28;20215;-80
2022/10/07 16:23:35;;;;;;;0.30;0.30;;;;;;;;;;5002898;28;20652;-79
2022/10/07 16:26:20;;;;;;;0.30;0.30;;;;;;;;;;4997208;28;20235;-79
2022/10/07 16:31:32;;;;;;;0.30;0.30;;;;;;;;;;4996445;28;20191;-80
2022/10/07 16:33:58;;;;;;;0.30;0.30;;;;;;;;;;5001022;28;20741;-79
2022/10/07 16:36:24;;;;;;;0.40;0.40;;;;;;;;;;4999137;28;20286;-79
2022/10/07 16:38:51;;;;;;;0.30;0.30;;;;;;;;;;5003656;28;20179;-79
2022/10/07 16:41:18;;;;;;;0.30;0.30;;;;;;;;;;5001600;28;20211;-79
2022/10/07 16:43:44;;;;;;;0.30;0.30;;;;;;;;;;5002970;28;20172;-79
2022/10/07 16:46:12;;;;;;;0.40;0.40;;;;;;;;;;5004600;28;20771;-79
2022/10/07 16:48:39;;;;;;;0.30;0.30;;;;;;;;;;4999945;28;20203;-79
2022/10/07 16:51:28;;;;;;;1.15;1.15;;;;;;;;;;4998508;28;20203;-79
2022/10/07 16:53:56;;;;;;;0.30;0.30;;;;;;;;;;5004423;28;20206;-80
2022/10/07 16:56:22;;;;;;;0.30;0.30;;;;;;;;;;5000489;28;20199;-79
2022/10/07 16:58:55;;;;;;;0.30;0.30;;;;;;;;;;5004683;28;20190;-79
2022/10/07 17:01:20;;;;;;;0.30;0.30;;;;;;;;;;4999773;28;20203;-79
2022/10/07 17:03:46;;;;;;;0.40;0.40;;;;;;;;;;5000454;28;20175;-80
2022/10/07 17:06:16;;;;;;;0.30;0.30;;;;;;;;;;4996939;28;20401;-79
2022/10/07 17:08:43;;;;;;;0.30;0.30;;;;;;;;;;4999660;28;20183;-80
2022/10/07 17:11:09;;;;;;;0.30;0.30;;;;;;;;;;4998970;28;20183;-79
2022/10/07 17:13:36;;;;;;;0.30;0.30;;;;;;;;;;5001105;28;20273;-79
2022/10/07 17:16:04;;;;;;;0.30;0.30;;;;;;;;;;4996164;28;20703;-78
2022/10/07 17:18:31;;;;;;;0.30;0.30;;;;;;;;;;4995759;28;20204;-79
2022/10/07 17:20:58;;;;;;;0.30;0.30;;;;;;;;;;5005732;28;20175;-78
2022/10/07 17:23:24;;;;;;;0.90;0.90;;;;;;;;;;5000479;28;20259;-78
2022/10/07 17:25:51;;;;;;;0.30;0.30;;;;;;;;;;5000418;28;21137;-77
2022/10/07 17:28:17;;;;;;;0.30;0.30;;;;;;;;;;4996446;28;20227;-78
2022/10/07 17:30:45;;;;;;;0.30;0.30;;;;;;;;;;4998043;28;20234;-78
2022/10/07 17:33:14;;;;;;;0.30;0.30;;;;;;;;;;5000212;28;20222;-79
2022/10/07 17:35:39;;;;;;;0.30;0.30;;;;;;;;;;5001099;28;20274;-78
2022/10/07 17:38:06;;;;;;;0.30;0.30;;;;;;;;;;5001497;28;20278;-78
2022/10/07 17:40:33;;;;;;;0.30;0.30;;;;;;;;;;5003413;28;20183;-78
2022/10/07 17:43:02;;;;;;;0.30;0.30;;;;;;;;;;5002962;28;20258;-78
2022/10/07 17:45:29;;;;;;;0.30;0.30;;;;;;;;;;4999442;28;20176;-78
2022/10/07 17:47:56;;;;;;;0.30;0.30;;;;;;;;;;4996831;28;20200;-78
2022/10/07 17:50:22;;;;;;;0.30;0.30;;;;;;;;;;4998510;28;20218;-78
2022/10/07 17:52:47;;;;;;;0.30;0.30;;;;;;;;;;5001711;28;20207;-78
2022/10/07 17:55:13;;;;;;;0.30;0.30;;;;;;;;;;5003657;28;20188;-78
2022/10/07 17:57:38;;;;;;;0.30;0.30;;;;;;;;;;4999691;28;20249;-79
2022/10/07 18:00:05;;;;;;;0.30;0.30;;;;;;;;;;5002026;28;20283;-78
2022/10/07 18:02:32;;;;;;;0.30;0.30;;;;;;;;;;5001727;28;20180;-77
2022/10/07 18:04:58;;;;;;;0.30;0.30;;;;;;;;;;5001978;28;20559;-77
2022/10/07 18:07:23;;;;;;;0.30;0.30;;;;;;;;;;5004395;28;20196;-78
2022/10/07 18:09:50;;;;;;;0.30;0.30;;;;;;;;;;4998453;28;20722;-78
2022/10/07 18:17:44;;;;;;;0.30;0.30;;;;;;;;;;4998730;28;20231;-78
2022/10/07 18:20:10;;;;;;;0.30;0.30;;;;;;;;;;4998196;28;20566;-78
2022/10/07 18:22:36;;;;;;;0.23;0.23;;;;;;;;;;4999469;28;20238;-78
2022/10/07 18:25:02;;;;;;;0.30;0.30;;;;;;;;;;5002329;28;20660;-78
2022/10/07 18:27:28;;;;;;;0.30;0.30;;;;;;;;;;5001191;28;20245;-78
2022/10/07 18:29:54;;;;;;;0.30;0.30;;;;;;;;;;5004039;28;20179;-78
2022/10/07 18:32:20;;;;;;;0.30;0.30;;;;;;;;;;4997555;28;20179;-78
2022/10/07 18:34:46;;;;;;;0.30;0.30;;;;;;;;;;5001625;28;20637;-78
2022/10/07 18:37:12;;;;;;;0.30;0.30;;;;;;;;;;4998798;28;20215;-78
2022/10/07 18:39:38;;;;;;;0.30;0.30;;;;;;;;;;5000399;28;20176;-78
2022/10/07 18:42:04;;;;;;;0.30;0.30;;;;;;;;;;4996807;28;20246;-77
2022/10/07 18:44:30;;;;;;;0.30;0.30;;;;;;;;;;5003699;28;20184;-77
2022/10/07 18:46:55;;;;;;;0.30;0.30;;;;;;;;;;5003687;28;20270;-77
2022/10/07 18:49:22;;;;;;;0.30;0.30;;;;;;;;;;5003569;28;20176;-77
2022/10/07 18:51:49;;;;;;;0.30;0.30;;;;;;;;;;4993164;28;20208;-79
2022/10/07 18:54:19;;;;;;;0.30;0.30;;;;;;;;;;4991977;28;20180;-78
2022/10/07 18:56:48;;;;;;;0.30;0.30;;;;;;;;;;4999848;28;20302;-77
2022/10/07 18:59:13;;;;;;;0.30;0.30;;;;;;;;;;5003130;28;20176;-77
2022/10/07 19:01:39;;;;;;;0.30;0.30;;;;;;;;;;5000319;28;20183;-77
2022/10/07 19:04:09;;;;;;;0.30;0.30;;;;;;;;;;5006343;28;20188;-78
2022/10/07 19:06:37;;;;;;;0.30;0.30;;;;;;;;;;5002303;28;20214;-79
2022/10/07 19:09:06;;;;;;;0.30;0.30;;;;;;;;;;5001831;28;20527;-78
2022/10/07 19:11:31;;;;;;;0.30;0.30;;;;;;;;;;5003073;28;20675;-78
2022/10/07 19:13:58;;;;;;;0.30;0.30;;;;;;;;;;5005233;28;20202;-78
2022/10/07 19:16:37;;;;;;;0.30;0.30;;;;;;;;;;5002276;28;20234;-80
2022/10/07 19:19:06;;;;;;;0.30;0.30;;;;;;;;;;5004303;28;20277;-78
2022/10/07 19:21:33;;;;;;;0.30;0.30;;;;;;;;;;5003161;28;20187;-77
2022/10/07 19:24:00;;;;;;;0.23;0.23;;;;;;;;;;5001486;28;20179;-78
2022/10/07 19:26:28;;;;;;;0.30;0.30;;;;;;;;;;5003659;28;20262;-78
2022/10/07 19:28:53;;;;;;;0.30;0.30;;;;;;;;;;5004982;28;20190;-77
2022/10/07 19:31:23;;;;;;;0.30;0.30;;;;;;;;;;5005347;28;20262;-78
2022/10/07 19:33:50;;;;;;;0.30;0.30;;;;;;;;;;5001995;28;20187;-79
2022/10/07 19:36:18;;;;;;;0.30;0.30;;;;;;;;;;5006152;28;20207;-78
2022/10/07 19:38:45;;;;;;;0.30;0.30;;;;;;;;;;4996477;28;20266;-78
2022/10/07 19:41:14;;;;;;;0.30;0.30;;;;;;;;;;5003245;28;20646;-78
2022/10/07 19:43:40;;;;;;;0.30;0.30;;;;;;;;;;5003073;28;20207;-78
2022/10/07 19:46:06;;;;;;;0.30;0.30;;;;;;;;;;5007685;28;20202;-78
2022/10/07 19:48:33;;;;;;;0.30;0.30;;;;;;;;;;5002819;28;20212;-77
2022/10/07 19:51:00;;;;;;;0.30;0.30;;;;;;;;;;5008143;28;20175;-78
2022/10/07 19:53:33;;;;;;;0.30;0.30;;;;;;;;;;5005699;28;20204;-78
2022/10/07 19:56:04;;;;;;;0.30;0.30;;;;;;;;;;5002043;28;20196;-79
2022/10/07 19:58:32;;;;;;;0.30;0.30;;;;;;;;;;5004829;28;20478;-78
2022/10/07 20:01:08;;;;;;;0.30;0.30;;;;;;;;;;5006321;28;20257;-78
2022/10/07 20:03:34;;;;;;;0.30;0.30;;;;;;;;;;5006983;28;20611;-78
2022/10/07 20:06:06;;;;;;;0.30;0.30;;;;;;;;;;5001096;28;20176;-79
2022/10/07 20:08:33;;;;;;;0.30;0.30;;;;;;;;;;5007817;28;20262;-78
2022/10/07 20:11:00;;;;;;;0.30;0.30;;;;;;;;;;5002414;28;20254;-78
2022/10/07 20:13:26;;;;;;;0.30;0.30;;;;;;;;;;5002860;28;20243;-81
2022/10/07 20:15:52;;;;;;;0.30;0.30;;;;;;;;;;4997531;28;20195;-78
2022/10/07 20:18:18;;;;;;;0.30;0.30;;;;;;;;;;4992451;28;20465;-79
2022/10/07 20:20:43;;;;;;;0.30;0.30;;;;;;;;;;5005792;28;20183;-77
2022/10/07 20:23:09;;;;;;;0.30;0.30;;;;;;;;;;5002961;28;20237;-77
2022/10/07 20:25:37;;;;;;;0.30;0.30;;;;;;;;;;5005121;28;20225;-77
2022/10/07 20:28:03;;;;;;;0.30;0.30;;;;;;;;;;4995108;28;20207;-79
2022/10/07 20:30:28;;;;;;;0.30;0.30;;;;;;;;;;4992968;28;20595;-78
2022/10/07 20:32:53;;;;;;;0.30;0.30;;;;;;;;;;5005523;28;20207;-80
2022/10/07 20:35:19;;;;;;;0.30;0.30;;;;;;;;;;4985824;28;20210;-79
2022/10/07 20:37:44;;;;;;;0.30;0.30;;;;;;;;;;4984509;28;20215;-79
2022/10/07 20:42:54;;;;;;;0.30;0.30;;;;;;;;;;4986456;28;20670;-79
2022/10/07 20:45:20;;;;;;;0.23;0.23;;;;;;;;;;4986985;28;20278;-79
2022/10/07 20:47:46;;;;;;;0.30;0.30;;;;;;;;;;4986484;28;20691;-79
2022/10/07 20:50:12;;;;;;;0.20;0.20;;;;;;;;;;4998652;28;20986;-78
2022/10/07 20:52:37;;;;;;;0.30;0.30;;;;;;;;;;5000560;28;20187;-78
2022/10/07 20:55:03;;;;;;;0.30;0.30;;;;;;;;;;5002513;28;20188;-78
2022/10/07 20:57:36;;;;;;;0.30;0.30;;;;;;;;;;5002774;28;20218;-78
2022/10/07 21:00:03;;;;;;;0.30;0.30;;;;;;;;;;4994507;28;20180;-78
2022/10/07 21:02:28;;;;;;;0.30;0.30;;;;;;;;;;4998625;28;20180;-79
2022/10/07 21:04:54;;;;;;;0.30;0.30;;;;;;;;;;5000276;28;20210;-79
2022/10/07 21:07:19;;;;;;;0.30;0.30;;;;;;;;;;5003696;28;20192;-79
2022/10/07 21:09:45;;;;;;;0.30;0.30;;;;;;;;;;4998468;28;20183;-78
2022/10/07 21:12:13;;;;;;;0.30;0.30;;;;;;;;;;5000569;28;20189;-79
2022/10/07 21:14:39;;;;;;;0.30;0.30;;;;;;;;;;4994553;28;20579;-80
2022/10/07 21:17:06;;;;;;;0.30;0.30;;;;;;;;;;4967705;28;20223;-79
2022/10/07 21:19:34;;;;;;;0.30;0.30;;;;;;;;;;5019388;28;20460;-79
2022/10/07 21:22:01;;;;;;;0.30;0.30;;;;;;;;;;5022023;28;20185;-80
2022/10/07 21:24:27;;;;;;;0.30;0.30;;;;;;;;;;5020946;28;20862;-81
2022/10/07 21:26:52;;;;;;;0.30;0.30;;;;;;;;;;5017977;28;20203;-79
2022/10/07 21:29:18;;;;;;;0.30;0.30;;;;;;;;;;5023914;28;20217;-80
2022/10/07 21:31:43;;;;;;;0.30;0.30;;;;;;;;;;5024626;28;20229;-78
2022/10/07 21:34:08;;;;;;;0.20;0.20;;;;;;;;;;5021399;28;20189;-79
2022/10/07 21:36:44;;;;;;;0.30;0.30;;;;;;;;;;5022184;28;20281;-79
2022/10/07 21:39:12;;;;;;;0.30;0.30;;;;;;;;;;5012409;28;20258;-79
2022/10/07 21:41:38;;;;;;;0.30;0.30;;;;;;;;;;5024459;28;20175;-79
2022/10/07 21:44:10;;;;;;;0.30;0.30;;;;;;;;;;5020632;28;20183;-80
2022/10/07 21:46:36;;;;;;;0.30;0.30;;;;;;;;;;5020138;28;20671;-79
2022/10/07 21:49:03;;;;;;;0.30;0.30;;;;;;;;;;5024293;28;20709;-80
2022/10/07 21:51:30;;;;;;;0.30;0.30;;;;;;;;;;5018663;28;20182;-79
2022/10/07 21:53:59;;;;;;;0.30;0.30;;;;;;;;;;5018609;28;20758;-79
2022/10/07 21:56:27;;;;;;;0.30;0.30;;;;;;;;;;5017454;28;20230;-78
2022/10/07 21:58:52;;;;;;;0.30;0.30;;;;;;;;;;5016604;28;20189;-79
2022/10/07 22:01:20;;;;;;;0.30;0.30;;;;;;;;;;5020389;28;20179;-78
2022/10/07 22:03:46;;;;;;;0.20;0.20;;;;;;;;;;5033827;28;20663;-79
2022/10/07 22:06:16;;;;;;;0.30;0.30;;;;;;;;;;5022070;28;20190;-78
2022/10/07 22:08:44;;;;;;;0.30;0.30;;;;;;;;;;5019152;28;20186;-79
2022/10/07 22:11:17;;;;;;;0.30;0.30;;;;;;;;;;5021826;28;20191;-79
2022/10/07 22:13:53;;;;;;;0.30;0.30;;;;;;;;;;5019079;28;20182;-80
2022/10/07 22:16:20;;;;;;;0.30;0.30;;;;;;;;;;5022645;28;20211;-79
2022/10/07 22:18:51;;;;;;;0.30;0.30;;;;;;;;;;5025158;28;20171;-79
2022/10/07 22:21:23;;;;;;;0.30;0.30;;;;;;;;;;5016627;28;20193;-79
2022/10/07 22:23:54;;;;;;;0.20;0.20;;;;;;;;;;5025062;28;20628;-79
2022/10/07 22:26:22;;;;;;;0.30;0.30;;;;;;;;;;5023240;28;20201;-78
2022/10/07 22:28:48;;;;;;;0.30;0.30;;;;;;;;;;5019568;28;20179;-79
2022/10/07 22:31:14;;;;;;;0.30;0.30;;;;;;;;;;5026472;28;20179;-78
2022/10/07 22:33:40;;;;;;;0.27;0.27;;;;;;;;;;5020153;28;20208;-77
2022/10/07 22:36:08;;;;;;;0.30;0.30;;;;;;;;;;5022576;28;20209;-77
2022/10/07 22:38:34;;;;;;;0.30;0.30;;;;;;;;;;5024844;28;20222;-77
2022/10/07 22:41:11;;;;;;;0.20;0.20;;;;;;;;;;5026660;28;20225;-77
2022/10/07 22:43:37;;;;;;;0.20;0.20;;;;;;;;;;5024597;28;20182;-76
2022/10/07 22:46:04;;;;;;;0.20;0.20;;;;;;;;;;5024550;28;20182;-77
2022/10/07 22:48:31;;;;;;;0.30;0.30;;;;;;;;;;5022502;28;20278;-76
2022/10/07 22:51:07;;;;;;;0.30;0.30;;;;;;;;;;5027835;28;20203;-79
2022/10/07 22:53:34;;;;;;;0.30;0.30;;;;;;;;;;5026248;28;20186;-76
2022/10/07 22:56:11;;;;;;;0.30;0.30;;;;;;;;;;5028205;28;20654;-78
2022/10/07 22:58:38;;;;;;;0.30;0.30;;;;;;;;;;5023280;28;20198;-77
2022/10/07 23:01:05;;;;;;;0.30;0.30;;;;;;;;;;5022751;28;20230;-77
2022/10/07 23:03:30;;;;;;;0.30;0.30;;;;;;;;;;5028632;28;20514;-77
2022/10/07 23:05:59;;;;;;;0.30;0.30;;;;;;;;;;5022117;28;20194;-77
2022/10/07 23:08:24;;;;;;;0.30;0.30;;;;;;;;;;5027221;28;20211;-77
2022/10/07 23:10:56;;;;;;;0.30;0.30;;;;;;;;;;5025881;28;20595;-77
2022/10/07 23:13:23;;;;;;;0.30;0.30;;;;;;;;;;5029085;28;20171;-77
2022/10/07 23:16:00;;;;;;;0.30;0.30;;;;;;;;;;5023592;28;20191;-77
2022/10/07 23:18:27;;;;;;;0.30;0.30;;;;;;;;;;5024440;28;20201;-77
2022/10/07 23:21:02;;;;;;;0.30;0.30;;;;;;;;;;5019263;28;20195;-77
2022/10/07 23:23:28;;;;;;;0.30;0.30;;;;;;;;;;5029623;28;20177;-78
2022/10/07 23:25:54;;;;;;;0.30;0.30;;;;;;;;;;5027231;28;20290;-78
2022/10/07 23:28:20;;;;;;;0.30;0.30;;;;;;;;;;5024156;28;20768;-78
2022/10/07 23:30:46;;;;;;;0.30;0.30;;;;;;;;;;5022735;28;20178;-80
2022/10/07 23:33:12;;;;;;;0.30;0.30;;;;;;;;;;5028679;28;20266;-79
2022/10/07 23:35:40;;;;;;;0.30;0.30;;;;;;;;;;5022456;28;20643;-78
2022/10/07 23:38:06;;;;;;;0.23;0.23;;;;;;;;;;5024096;28;20210;-79
2022/10/07 23:40:32;;;;;;;0.30;0.30;;;;;;;;;;5029960;28;20185;-78
2022/10/07 23:42:57;;;;;;;0.30;0.30;;;;;;;;;;5023298;28;20179;-78
2022/10/07 23:45:22;;;;;;;0.63;0.63;;;;;;;;;;5022821;28;20194;-78
2022/10/07 23:47:48;;;;;;;0.30;0.30;;;;;;;;;;5026939;28;20226;-79
2022/10/07 23:50:13;;;;;;;0.30;0.30;;;;;;;;;;5024779;28;20186;-79
2022/10/07 23:52:38;;;;;;;0.30;0.30;;;;;;;;;;5025909;28;20240;-79
2022/10/07 23:55:05;;;;;;;0.30;0.30;;;;;;;;;;5022518;28;20232;-78
2022/10/07 23:57:30;;;;;;;0.30;0.30;;;;;;;;;;5027245;28;20222;-78
2022/10/07 23:59:56;;;;;;;0.30;0.30;;;;;;;;;;5023535;28;20183;-78
